Welcome to Northern Hawkes Bay. New Zealand.
PWS Header
      nz Flag



Hit Counter


W3C Valid W3C Valid logo


    Wairoa

Select any of the Stations below to visit their websites.










Historic Data from Weather Underground
Select the location of interest below. Wairoa is the default. Please have patience, this Data is slow to load in.
Northern Hawkes Bay Historical Data
Daily Summary for November 10, 2018 Units:  Both    English   Metric
« Previous Day
Next Day »
Daily Weekly Monthly Yearly Custom
  High: Low: Average:
Temperature: 67.1 °F /  19.5 °C 53.6 °F /  12.0 °C 58.5 °F /  14.7 °C
Dew Point: 59.4 °F /  15.2 °C 49.6 °F /  9.8 °C 53.2 °F /  11.8 °C
Humidity: 99% 69% 83%
Wind Speed: 15.9mph /  25.6km/h - 6.3mph /  10.2km/h
Wind Gust: 24.4mph /  39.3km/h - -
Wind- - ESE
Pressure: 30.2 in /  1023.4 hPa 29.8 in /  1010.4 hPa -
Precipitation: 0.28 in /  7.1 mm    
Historical Graphs
 
 
Tabular Data for November 10, 2018
Time Temperature Dew Point Pressure Wind Wind Speed Wind Gust Humidity Rainfall Rate (Hourly) solar
00:04 67.1 °F /  19.5 °C 58.6 °F /  14.8 °C 29.8in /  1010.7hPa NNE 7.6mph /  12.2km/h 14.5mph /  23.3km/h 74% 0in /  0.0mm 0.00 W/m2
00:07 66.9 °F /  19.4 °C 58.5 °F /  14.7 °C 29.8in /  1010.7hPa NNE 8.3mph /  13.4km/h 14.5mph /  23.3km/h 74% 0in /  0.0mm 0.00 W/m2
00:14 66.9 °F /  19.4 °C 58.5 °F /  14.7 °C 29.9in /  1010.8hPa NNE 8.3mph /  13.4km/h 16.8mph /  27.0km/h 74% 0in /  0.0mm 0.00 W/m2
00:18 66.9 °F /  19.4 °C 58.5 °F /  14.7 °C 29.9in /  1010.9hPa North 5.4mph /  8.7km/h 16.8mph /  27.0km/h 74% 0in /  0.0mm 0.00 W/m2
00:23 66.7 °F /  19.3 °C 58.6 °F /  14.8 °C 29.9in /  1011.0hPa North 6.9mph /  11.1km/h 16.8mph /  27.0km/h 75% 0in /  0.0mm 0.00 W/m2
00:29 66.7 °F /  19.3 °C 58.6 °F /  14.8 °C 29.9in /  1010.8hPa NNE 6.9mph /  11.1km/h 14.5mph /  23.3km/h 75% 0in /  0.0mm 0.00 W/m2
00:33 66.7 °F /  19.3 °C 58.6 °F /  14.8 °C 29.9in /  1011.1hPa NNE 7.6mph /  12.2km/h 14.5mph /  23.3km/h 75% 0in /  0.0mm 0.00 W/m2
00:38 66.7 °F /  19.3 °C 58.6 °F /  14.8 °C 29.9in /  1010.9hPa NNE 8.3mph /  13.4km/h 13.6mph /  21.9km/h 75% 0in /  0.0mm 0.00 W/m2
00:42 66.7 °F /  19.3 °C 58.6 °F /  14.8 °C 29.9in /  1011.1hPa NNE 9.2mph /  14.8km/h 14.5mph /  23.3km/h 75% 0in /  0.0mm 0.00 W/m2
00:49 66.7 °F /  19.3 °C 58.6 °F /  14.8 °C 29.9in /  1011.0hPa NNE 9.8mph /  15.8km/h 15.2mph /  24.5km/h 75% 0in /  0.0mm 0.00 W/m2
00:54 66.7 °F /  19.3 °C 58.6 °F /  14.8 °C 29.9in /  1010.8hPa NNE 7.6mph /  12.2km/h 15.2mph /  24.5km/h 75% 0in /  0.0mm 0.00 W/m2
00:59 66.6 °F /  19.2 °C 58.5 °F /  14.7 °C 29.9in /  1010.8hPa NNE 7.6mph /  12.2km/h 13.6mph /  21.9km/h 75% 0in /  0.0mm 0.00 W/m2
01:04 66.4 °F /  19.1 °C 58.3 °F /  14.6 °C 29.9in /  1010.8hPa NE 9.8mph /  15.8km/h 15.2mph /  24.5km/h 75% 0in /  0.0mm 0.00 W/m2
01:09 66.4 °F /  19.1 °C 58.3 °F /  14.6 °C 29.9in /  1010.8hPa NE 8.3mph /  13.4km/h 15.2mph /  24.5km/h 75% 0in /  0.0mm 0.00 W/m2
01:14 66.4 °F /  19.1 °C 58.3 °F /  14.6 °C 29.8in /  1010.7hPa NE 3.8mph /  6.1km/h 13.6mph /  21.9km/h 75% 0in /  0.0mm 0.00 W/m2
01:18 66.2 °F /  19.0 °C 58.5 °F /  14.7 °C 29.8in /  1010.6hPa NNE 5.4mph /  8.7km/h 13mph /  20.9km/h 76% 0in /  0.0mm 0.00 W/m2
01:23 66.2 °F /  19.0 °C 58.5 °F /  14.7 °C 29.8in /  1010.7hPa NNE 5.4mph /  8.7km/h 14.5mph /  23.3km/h 76% 0in /  0.0mm 0.00 W/m2
01:29 66.2 °F /  19.0 °C 58.5 °F /  14.7 °C 29.8in /  1010.6hPa NNE 6mph /  9.7km/h 14.5mph /  23.3km/h 76% 0in /  0.0mm 0.00 W/m2
01:33 66.2 °F /  19.0 °C 58.5 °F /  14.7 °C 29.8in /  1010.5hPa NE 7.6mph /  12.2km/h 15.9mph /  25.6km/h 76% 0in /  0.0mm 0.00 W/m2
01:39 66.2 °F /  19.0 °C 58.5 °F /  14.7 °C 29.8in /  1010.6hPa NE 6mph /  9.7km/h 15.9mph /  25.6km/h 76% 0in /  0.0mm 0.00 W/m2
01:44 66.2 °F /  19.0 °C 58.5 °F /  14.7 °C 29.8in /  1010.5hPa NNE 7.6mph /  12.2km/h 14.5mph /  23.3km/h 76% 0in /  0.0mm 0.00 W/m2
01:45 66.2 °F /  19.0 °C 58.5 °F /  14.7 °C 29.8in /  1010.4hPa NNE 9.2mph /  14.8km/h 14.5mph /  23.3km/h 76% 0in /  0.0mm 0.00 W/m2
01:52 66.2 °F /  19.0 °C 58.5 °F /  14.7 °C 29.8in /  1010.5hPa NNE 6.9mph /  11.1km/h 13mph /  20.9km/h 76% 0in /  0.0mm 0.00 W/m2
01:59 66.2 °F /  19.0 °C 58.5 °F /  14.7 °C 29.8in /  1010.5hPa North 9.2mph /  14.8km/h 15.2mph /  24.5km/h 76% 0in /  0.0mm 0.00 W/m2
02:04 66.2 °F /  19.0 °C 58.5 °F /  14.7 °C 29.8in /  1010.4hPa NNE 7.6mph /  12.2km/h 15.2mph /  24.5km/h 76% 0in /  0.0mm 0.00 W/m2
02:09 66 °F /  18.9 °C 58.6 °F /  14.8 °C 29.8in /  1010.4hPa NNE 6mph /  9.7km/h 13.6mph /  21.9km/h 77% 0in /  0.0mm 0.00 W/m2
02:11 66 °F /  18.9 °C 58.6 °F /  14.8 °C 29.8in /  1010.6hPa North 6mph /  9.7km/h 9.8mph /  15.8km/h 77% 0in /  0.0mm 0.00 W/m2
02:19 65.8 °F /  18.8 °C 58.8 °F /  14.9 °C 29.8in /  1010.5hPa North 6mph /  9.7km/h 9.8mph /  15.8km/h 78% 0in /  0.0mm 0.00 W/m2
02:23 65.8 °F /  18.8 °C 58.8 °F /  14.9 °C 29.8in /  1010.5hPa North 6.9mph /  11.1km/h 10.7mph /  17.2km/h 78% 0in /  0.0mm 0.00 W/m2
02:28 65.8 °F /  18.8 °C 58.8 °F /  14.9 °C 29.8in /  1010.5hPa North 6mph /  9.7km/h 10.7mph /  17.2km/h 78% 0in /  0.0mm 0.00 W/m2
02:34 65.8 °F /  18.8 °C 58.8 °F /  14.9 °C 29.8in /  1010.6hPa North 5.4mph /  8.7km/h 9.2mph /  14.8km/h 78% 0in /  0.0mm 0.00 W/m2
02:39 65.8 °F /  18.8 °C 58.8 °F /  14.9 °C 29.8in /  1010.5hPa North 6mph /  9.7km/h 9.8mph /  15.8km/h 78% 0in /  0.0mm 0.00 W/m2
02:43 65.7 °F /  18.7 °C 59 °F /  15.0 °C 29.8in /  1010.5hPa North 3.1mph /  5.0km/h 9.8mph /  15.8km/h 79% 0in /  0.0mm 0.00 W/m2
02:49 65.3 °F /  18.5 °C 58.6 °F /  14.8 °C 29.8in /  1010.7hPa North 3.8mph /  6.1km/h 8.3mph /  13.4km/h 79% 0in /  0.0mm 0.00 W/m2
02:53 65.3 °F /  18.5 °C 58.6 °F /  14.8 °C 29.8in /  1010.6hPa North 3.8mph /  6.1km/h 7.6mph /  12.2km/h 79% 0in /  0.0mm 0.00 W/m2
02:59 65.3 °F /  18.5 °C 58.6 °F /  14.8 °C 29.8in /  1010.6hPa NNW 2.2mph /  3.5km/h 7.6mph /  12.2km/h 79% 0in /  0.0mm 0.00 W/m2
03:04 65.3 °F /  18.5 °C 59 °F /  15.0 °C 29.9in /  1010.8hPa NNW 3.1mph /  5.0km/h 6mph /  9.7km/h 80% 0in /  0.0mm 0.00 W/m2
03:05 65.3 °F /  18.5 °C 59 °F /  15.0 °C 29.9in /  1010.8hPa NNW 2.2mph /  3.5km/h 6mph /  9.7km/h 80% 0in /  0.0mm 0.00 W/m2
03:14 65.7 °F /  18.7 °C 59.4 °F /  15.2 °C 29.9in /  1010.8hPa North 3.1mph /  5.0km/h 8.3mph /  13.4km/h 80% 0in /  0.0mm 0.00 W/m2
03:19 65.3 °F /  18.5 °C 59 °F /  15.0 °C 29.8in /  1010.7hPa North 3.1mph /  5.0km/h 8.3mph /  13.4km/h 80% 0in /  0.0mm 0.00 W/m2
03:23 65.3 °F /  18.5 °C 59 °F /  15.0 °C 29.8in /  1010.7hPa North 2.2mph /  3.5km/h 6mph /  9.7km/h 80% 0in /  0.0mm 0.00 W/m2
03:29 65.3 °F /  18.5 °C 59 °F /  15.0 °C 29.9in /  1010.9hPa North 4.5mph /  7.2km/h 6mph /  9.7km/h 80% 0in /  0.0mm 0.00 W/m2
03:34 65.3 °F /  18.5 °C 59 °F /  15.0 °C 29.9in /  1010.9hPa North 4.5mph /  7.2km/h 6mph /  9.7km/h 80% 0in /  0.0mm 0.00 W/m2
03:39 65.3 °F /  18.5 °C 59 °F /  15.0 °C 29.9in /  1010.9hPa NNW 2.2mph /  3.5km/h 6mph /  9.7km/h 80% 0in /  0.0mm 0.00 W/m2
03:44 65.1 °F /  18.4 °C 59.2 °F /  15.1 °C 29.9in /  1011.2hPa Calm   5.4mph /  8.7km/h 81% 0in /  0.0mm 0.00 W/m2
03:49 64.6 °F /  18.1 °C 58.6 °F /  14.8 °C 29.9in /  1011.8hPa SW 8.3mph /  13.4km/h 17.4mph /  28.0km/h 81% 0in /  0.0mm 0.00 W/m2
03:53 62.2 °F /  16.8 °C 57.7 °F /  14.3 °C 29.9in /  1011.9hPa SW 6.9mph /  11.1km/h 17.4mph /  28.0km/h 85% 0in /  0.0mm 0.00 W/m2
03:58 60.6 °F /  15.9 °C 57.9 °F /  14.4 °C 29.9in /  1011.9hPa SSW 12.1mph /  19.5km/h 18.3mph /  29.4km/h 91% 0in /  0.0mm 0.00 W/m2
04:04 59.2 °F /  15.1 °C 57.6 °F /  14.2 °C 29.9in /  1011.9hPa SW 12.1mph /  19.5km/h 19.7mph /  31.7km/h 94% 0.01in /  0.3mm 0.00 W/m2
04:09 58.5 °F /  14.7 °C 57.6 °F /  14.2 °C 29.9in /  1012.1hPa SW 14.5mph /  23.3km/h 20.6mph /  33.1km/h 97% 0.01in /  0.3mm 0.00 W/m2
04:13 58.1 °F /  14.5 °C 57.7 °F /  14.3 °C 29.9in /  1012.0hPa SW 11.4mph /  18.3km/h 20.6mph /  33.1km/h 99% 0.02in /  0.5mm 0.00 W/m2
04:17 57.7 °F /  14.3 °C 57.6 °F /  14.2 °C 29.9in /  1012.2hPa SW 11.4mph /  18.3km/h 20.6mph /  33.1km/h 99% 0.02in /  0.5mm 0.00 W/m2
04:21 57.2 °F /  14.0 °C 56.8 °F /  13.8 °C 29.9in /  1012.3hPa SW 12.1mph /  19.5km/h 22.8mph /  36.7km/h 99% 0.02in /  0.5mm 0.00 W/m2
04:29 56.7 °F /  13.7 °C 56.5 °F /  13.6 °C 29.9in /  1012.6hPa SSW 9.8mph /  15.8km/h 19.7mph /  31.7km/h 99% 0.04in /  1.0mm 0.00 W/m2
04:34 56.5 °F /  13.6 °C 56.1 °F /  13.4 °C 29.9in /  1012.6hPa SW 13mph /  20.9km/h 23.5mph /  37.8km/h 99% 0.06in /  1.5mm 0.00 W/m2
04:38 56.5 °F /  13.6 °C 56.1 °F /  13.4 °C 29.9in /  1012.6hPa SW 12.1mph /  19.5km/h 23.5mph /  37.8km/h 99% 0.06in /  1.5mm 0.00 W/m2
04:40 56.5 °F /  13.6 °C 56.1 °F /  13.4 °C 29.9in /  1012.5hPa SW 11.4mph /  18.3km/h 23.5mph /  37.8km/h 99% 0.06in /  1.5mm 0.00 W/m2
04:48 55.9 °F /  13.3 °C 55.8 °F /  13.2 °C 29.9in /  1013.1hPa SW 8.3mph /  13.4km/h 22.1mph /  35.6km/h 99% 0.08in /  2.0mm 0.00 W/m2
04:54 55.4 °F /  13.0 °C 55 °F /  12.8 °C 29.9in /  1013.1hPa SW 9.8mph /  15.8km/h 24.4mph /  39.3km/h 99% 0.08in /  2.0mm 0.00 W/m2
04:58 55.4 °F /  13.0 °C 55 °F /  12.8 °C 29.9in /  1013.1hPa SW 9.2mph /  14.8km/h 24.4mph /  39.3km/h 99% 0.09in /  2.3mm 0.00 W/m2
05:01 55 °F /  12.8 °C 54.1 °F /  12.3 °C 29.9in /  1013.4hPa SW 13mph /  20.9km/h 24.4mph /  39.3km/h 97% 0.09in /  2.3mm 0.00 W/m2
05:09 54.7 °F /  12.6 °C 54 °F /  12.2 °C 29.9in /  1013.6hPa WSW 15.9mph /  25.6km/h 23.5mph /  37.8km/h 97% 0.11in /  2.8mm 0.00 W/m2
05:14 54.3 °F /  12.4 °C 53.4 °F /  11.9 °C 29.9in /  1013.9hPa WSW 13mph /  20.9km/h 23.5mph /  37.8km/h 97% 0.11in /  2.8mm 0.00 W/m2
05:19 54.3 °F /  12.4 °C 53.4 °F /  11.9 °C 29.9in /  1013.9hPa WSW 13.6mph /  21.9km/h 21.3mph /  34.3km/h 97% 0.11in /  2.8mm 0.00 W/m2
05:24 54.3 °F /  12.4 °C 53.4 °F /  11.9 °C 29.9in /  1014.1hPa WSW 11.4mph /  18.3km/h 22.1mph /  35.6km/h 97% 0.11in /  2.8mm 0.00 W/m2
05:28 54.3 °F /  12.4 °C 53.4 °F /  11.9 °C 29.9in /  1013.9hPa WSW 8.3mph /  13.4km/h 22.1mph /  35.6km/h 97% 0.12in /  3.0mm 0.00 W/m2
05:44 54.3 °F /  12.4 °C 53.4 °F /  11.9 °C 30in /  1014.3hPa SW 12.1mph /  19.5km/h 19.7mph /  31.7km/h 97% 0.09in /  2.3mm 0.00 W/m2
05:48 54.1 °F /  12.3 °C 53.2 °F /  11.8 °C 30in /  1014.5hPa WSW 15.9mph /  25.6km/h 20.6mph /  33.1km/h 97% 0.09in /  2.3mm 0.00 W/m2
05:54 54 °F /  12.2 °C 53.1 °F /  11.7 °C 30in /  1014.9hPa SW 13.6mph /  21.9km/h 23.5mph /  37.8km/h 97% 0.11in /  2.8mm 0.00 W/m2
05:59 53.8 °F /  12.1 °C 53.1 °F /  11.7 °C 30in /  1015.0hPa SW 7.6mph /  12.2km/h 23.5mph /  37.8km/h 97% 0.09in /  2.3mm 0.00 W/m2
06:03 54 °F /  12.2 °C 53.1 °F /  11.7 °C 30in /  1015.1hPa SW 7.6mph /  12.2km/h 17.4mph /  28.0km/h 97% 0.09in /  2.3mm 0.00 W/m2
06:08 53.8 °F /  12.1 °C 53.1 °F /  11.7 °C 30in /  1014.8hPa SW 9.2mph /  14.8km/h 15.9mph /  25.6km/h 97% 0.09in /  2.3mm 0.00 W/m2
06:12 53.8 °F /  12.1 °C 53.1 °F /  11.7 °C 30in /  1014.9hPa WSW 11.4mph /  18.3km/h 15.9mph /  25.6km/h 97% 0.08in /  2.0mm 0.00 W/m2
06:17 53.6 °F /  12.0 °C 52.9 °F /  11.6 °C 30in /  1015.2hPa WSW 7.6mph /  12.2km/h 18.3mph /  29.4km/h 97% 0.08in /  2.0mm 0.00 W/m2
06:23 53.8 °F /  12.1 °C 53.1 °F /  11.7 °C 30in /  1015.1hPa WSW 11.4mph /  18.3km/h 18.3mph /  29.4km/h 97% 0.08in /  2.0mm 2.00 W/m2
06:29 53.8 °F /  12.1 °C 53.1 °F /  11.7 °C 30in /  1015.3hPa SSW 11.4mph /  18.3km/h 16.8mph /  27.0km/h 97% 0.08in /  2.0mm 2.00 W/m2
06:34 53.8 °F /  12.1 °C 53.1 °F /  11.7 °C 30in /  1015.4hPa West 10.7mph /  17.2km/h 16.8mph /  27.0km/h 97% 0.07in /  1.8mm 6.00 W/m2
06:39 53.8 °F /  12.1 °C 53.1 °F /  11.7 °C 30in /  1015.5hPa NNW 7.6mph /  12.2km/h 16.8mph /  27.0km/h 97% 0.06in /  1.5mm 9.00 W/m2
06:44 53.8 °F /  12.1 °C 53.1 °F /  11.7 °C 30in /  1015.5hPa WNW 8.3mph /  13.4km/h 16.8mph /  27.0km/h 97% 0.07in /  1.8mm 12.00 W/m2
06:54 53.8 °F /  12.1 °C 53.1 °F /  11.7 °C 30in /  1015.9hPa NNE 9.2mph /  14.8km/h 19.7mph /  31.7km/h 97% 0.06in /  1.5mm 16.00 W/m2
06:57 54 °F /  12.2 °C 53.1 °F /  11.7 °C 30in /  1015.9hPa North 9.8mph /  15.8km/h 19.7mph /  31.7km/h 97% 0.06in /  1.5mm 22.00 W/m2
07:04 53.8 °F /  12.1 °C 53.1 °F /  11.7 °C 30in /  1016.3hPa North 9.2mph /  14.8km/h 13mph /  20.9km/h 97% 0.05in /  1.3mm 18.00 W/m2
07:07 53.8 °F /  12.1 °C 53.1 °F /  11.7 °C 30in /  1016.0hPa NE 11.4mph /  18.3km/h 14.5mph /  23.3km/h 97% 0.05in /  1.3mm 19.00 W/m2
07:17 53.8 °F /  12.1 °C 53.1 °F /  11.7 °C 30in /  1015.9hPa NNW 9.8mph /  15.8km/h 19.7mph /  31.7km/h 97% 0.04in /  1.0mm 39.00 W/m2
07:24 54 °F /  12.2 °C 53.1 °F /  11.7 °C 30in /  1016.2hPa North 10.7mph /  17.2km/h 19mph /  30.6km/h 97% 0.04in /  1.0mm 22.00 W/m2
07:29 54 °F /  12.2 °C 53.1 °F /  11.7 °C 30in /  1016.5hPa NNE 9.2mph /  14.8km/h 19mph /  30.6km/h 97% 0.02in /  0.5mm 39.00 W/m2
07:33 54 °F /  12.2 °C 53.1 °F /  11.7 °C 30in /  1016.4hPa NE 6.9mph /  11.1km/h 15.2mph /  24.5km/h 97% 0.02in /  0.5mm 58.00 W/m2
07:38 54 °F /  12.2 °C 53.1 °F /  11.7 °C 30in /  1016.4hPa ESE 7.6mph /  12.2km/h 15.2mph /  24.5km/h 97% 0.02in /  0.5mm 56.00 W/m2
07:43 54 °F /  12.2 °C 53.1 °F /  11.7 °C 30in /  1016.3hPa NE 10.7mph /  17.2km/h 16.8mph /  27.0km/h 97% 0.01in /  0.3mm 68.00 W/m2
07:49 54.1 °F /  12.3 °C 53.2 °F /  11.8 °C 30in /  1016.5hPa NNE 6mph /  9.7km/h 16.8mph /  27.0km/h 97% 0.01in /  0.3mm 43.00 W/m2
07:54 54.3 °F /  12.4 °C 53.4 °F /  11.9 °C 30in /  1016.6hPa NE 7.6mph /  12.2km/h 16.8mph /  27.0km/h 97% 0.01in /  0.3mm 45.00 W/m2
07:59 54.3 °F /  12.4 °C 53.4 °F /  11.9 °C 30in /  1016.7hPa NE 12.1mph /  19.5km/h 18.3mph /  29.4km/h 97% 0.01in /  0.3mm 47.00 W/m2
08:04 54.3 °F /  12.4 °C 53.4 °F /  11.9 °C 30in /  1017.1hPa WSW 8.3mph /  13.4km/h 18.3mph /  29.4km/h 97% 0.01in /  0.3mm 75.00 W/m2
08:09 54.3 °F /  12.4 °C 53.4 °F /  11.9 °C 30in /  1016.9hPa NE 8.3mph /  13.4km/h 18.3mph /  29.4km/h 97% 0.01in /  0.3mm 88.00 W/m2
08:19 54.5 °F /  12.5 °C 53.8 °F /  12.1 °C 30in /  1016.9hPa NE 6mph /  9.7km/h 16.8mph /  27.0km/h 97% 0in /  0.0mm 55.00 W/m2
08:21 54.7 °F /  12.6 °C 54 °F /  12.2 °C 30in /  1017.1hPa NE 13.6mph /  21.9km/h 16.8mph /  27.0km/h 97% 0in /  0.0mm 48.00 W/m2
08:29 54.5 °F /  12.5 °C 53.8 °F /  12.1 °C 30in /  1017.2hPa ENE 11.4mph /  18.3km/h 15.9mph /  25.6km/h 97% 0in /  0.0mm 71.00 W/m2
08:34 54.5 °F /  12.5 °C 53.4 °F /  11.9 °C 30in /  1017.2hPa ENE 9.8mph /  15.8km/h 15.2mph /  24.5km/h 96% 0in /  0.0mm 82.00 W/m2
08:39 54.7 °F /  12.6 °C 53.6 °F /  12.0 °C 30in /  1017.3hPa East 8.3mph /  13.4km/h 16.8mph /  27.0km/h 96% 0in /  0.0mm 76.00 W/m2
08:40 54.9 °F /  12.7 °C 53.8 °F /  12.1 °C 30in /  1017.2hPa East 7.6mph /  12.2km/h 16.8mph /  27.0km/h 96% 0in /  0.0mm 81.00 W/m2
08:49 54.7 °F /  12.6 °C 53.2 °F /  11.8 °C 30.1in /  1017.5hPa NNE 9.8mph /  15.8km/h 16.8mph /  27.0km/h 95% 0in /  0.0mm 85.00 W/m2
08:54 54.3 °F /  12.4 °C 52.5 °F /  11.4 °C 30in /  1017.4hPa NNE 6.9mph /  11.1km/h 15.9mph /  25.6km/h 94% 0in /  0.0mm 94.00 W/m2
08:58 54.5 °F /  12.5 °C 52.5 °F /  11.4 °C 30.1in /  1017.5hPa South 6mph /  9.7km/h 14.5mph /  23.3km/h 93% 0in /  0.0mm 104.00 W/m2
09:04 55.2 °F /  12.9 °C 53.2 °F /  11.8 °C 30.1in /  1017.5hPa East 8.3mph /  13.4km/h 16.8mph /  27.0km/h 93% 0in /  0.0mm 68.00 W/m2
09:08 54.9 °F /  12.7 °C 53.2 °F /  11.8 °C 30.1in /  1017.8hPa NE 13mph /  20.9km/h 19mph /  30.6km/h 94% 0in /  0.0mm 72.00 W/m2
09:13 54.5 °F /  12.5 °C 53.8 °F /  12.1 °C 30.1in /  1017.5hPa NE 7.6mph /  12.2km/h 19mph /  30.6km/h 97% 0in /  0.0mm 108.00 W/m2
09:17 54.5 °F /  12.5 °C 53.8 °F /  12.1 °C 30.1in /  1017.6hPa NE 4.5mph /  7.2km/h 19mph /  30.6km/h 97% 0in /  0.0mm 119.00 W/m2
09:24 54.3 °F /  12.4 °C 53.4 °F /  11.9 °C 30.1in /  1017.6hPa NE 6.9mph /  11.1km/h 13.6mph /  21.9km/h 97% 0in /  0.0mm 144.00 W/m2
09:29 54.9 °F /  12.7 °C 53.8 °F /  12.1 °C 30.1in /  1017.7hPa ENE 7.6mph /  12.2km/h 15.9mph /  25.6km/h 96% 0in /  0.0mm 67.00 W/m2
09:34 54.3 °F /  12.4 °C 52.9 °F /  11.6 °C 30.1in /  1017.8hPa NE 11.4mph /  18.3km/h 22.1mph /  35.6km/h 95% 0.01in /  0.3mm 100.00 W/m2
09:38 54.1 °F /  12.3 °C 53.2 °F /  11.8 °C 30.1in /  1017.9hPa NE 8.3mph /  13.4km/h 22.1mph /  35.6km/h 97% 0.01in /  0.3mm 123.00 W/m2
09:44 54 °F /  12.2 °C 53.1 °F /  11.7 °C 30.1in /  1017.8hPa NE 9.2mph /  14.8km/h 17.4mph /  28.0km/h 97% 0.01in /  0.3mm 141.00 W/m2
09:46 54.1 °F /  12.3 °C 53.2 °F /  11.8 °C 30.1in /  1017.7hPa NE 4.5mph /  7.2km/h 17.4mph /  28.0km/h 97% 0.01in /  0.3mm 152.00 W/m2
09:53 54.3 °F /  12.4 °C 53.4 °F /  11.9 °C 30.1in /  1017.8hPa NE 6mph /  9.7km/h 13.6mph /  21.9km/h 97% 0.01in /  0.3mm 137.00 W/m2
09:56 54.5 °F /  12.5 °C 53.8 °F /  12.1 °C 30.1in /  1017.9hPa NNE 3.8mph /  6.1km/h 13.6mph /  21.9km/h 97% 0.01in /  0.3mm 182.00 W/m2
10:03 54.9 °F /  12.7 °C 53.4 °F /  11.9 °C 30.1in /  1018.1hPa WNW 6.9mph /  11.1km/h 15.2mph /  24.5km/h 95% 0.01in /  0.3mm 159.00 W/m2
10:07 55.4 °F /  13.0 °C 52.5 °F /  11.4 °C 30.1in /  1017.9hPa NW 9.2mph /  14.8km/h 15.2mph /  24.5km/h 90% 0.01in /  0.3mm 183.00 W/m2
10:12 56.3 °F /  13.5 °C 52.9 °F /  11.6 °C 30.1in /  1018.1hPa NNW 7.6mph /  12.2km/h 13.6mph /  21.9km/h 88% 0.01in /  0.3mm 180.00 W/m2
10:19 56.5 °F /  13.6 °C 52 °F /  11.1 °C 30.1in /  1018.3hPa WNW 8.3mph /  13.4km/h 17.4mph /  28.0km/h 85% 0.01in /  0.3mm 176.00 W/m2
10:24 56.5 °F /  13.6 °C 52 °F /  11.1 °C 30.1in /  1018.4hPa North 8.3mph /  13.4km/h 17.4mph /  28.0km/h 85% 0.01in /  0.3mm 169.00 W/m2
10:29 56.7 °F /  13.7 °C 50.9 °F /  10.5 °C 30.1in /  1018.4hPa South 8.3mph /  13.4km/h 13.6mph /  21.9km/h 81% 0in /  0.0mm 162.00 W/m2
10:34 57 °F /  13.9 °C 51.3 °F /  10.7 °C 30.1in /  1018.3hPa SW 7.6mph /  12.2km/h 15.2mph /  24.5km/h 81% 0in /  0.0mm 208.00 W/m2
10:36 57.2 °F /  14.0 °C 51.4 °F /  10.8 °C 30.1in /  1018.5hPa WNW 9.8mph /  15.8km/h 15.2mph /  24.5km/h 81% 0in /  0.0mm 222.00 W/m2
10:58 57.9 °F /  14.4 °C 51.1 °F /  10.6 °C 30.1in /  1018.5hPa WSW 6.9mph /  11.1km/h 17.4mph /  28.0km/h 78% 0in /  0.0mm 209.00 W/m2
11:04 57.9 °F /  14.4 °C 51.1 °F /  10.6 °C 30.1in /  1018.6hPa WSW 6.9mph /  11.1km/h 13mph /  20.9km/h 78% 0in /  0.0mm 201.00 W/m2
11:09 58.3 °F /  14.6 °C 51.8 °F /  11.0 °C 30.1in /  1018.7hPa West 6.9mph /  11.1km/h 13mph /  20.9km/h 79% 0in /  0.0mm 221.00 W/m2
11:12 58.3 °F /  14.6 °C 51.8 °F /  11.0 °C 30.1in /  1018.9hPa North 8.3mph /  13.4km/h 13mph /  20.9km/h 79% 0in /  0.0mm 236.00 W/m2
11:18 58.3 °F /  14.6 °C 52.2 °F /  11.2 °C 30.1in /  1018.9hPa SE 9.2mph /  14.8km/h 14.5mph /  23.3km/h 80% 0in /  0.0mm 192.00 W/m2
11:24 58.3 °F /  14.6 °C 52.2 °F /  11.2 °C 30.1in /  1018.7hPa South 11.4mph /  18.3km/h 13.6mph /  21.9km/h 80% 0in /  0.0mm 204.00 W/m2
11:27 58.1 °F /  14.5 °C 51.3 °F /  10.7 °C 30.1in /  1018.8hPa ENE 8.3mph /  13.4km/h 13.6mph /  21.9km/h 78% 0in /  0.0mm 207.00 W/m2
11:34 58.3 °F /  14.6 °C 51.8 °F /  11.0 °C 30.1in /  1018.9hPa North 10.7mph /  17.2km/h 13.6mph /  21.9km/h 79% 0in /  0.0mm 220.00 W/m2
11:39 58.3 °F /  14.6 °C 51.1 °F /  10.6 °C 30.1in /  1019.0hPa North 6.9mph /  11.1km/h 15.2mph /  24.5km/h 77% 0in /  0.0mm 192.00 W/m2
11:44 58.3 °F /  14.6 °C 51.8 °F /  11.0 °C 30.1in /  1019.0hPa North 9.8mph /  15.8km/h 15.9mph /  25.6km/h 79% 0in /  0.0mm 186.00 W/m2
11:47 57.9 °F /  14.4 °C 52.9 °F /  11.6 °C 30.1in /  1018.9hPa North 9.8mph /  15.8km/h 17.4mph /  28.0km/h 83% 0in /  0.0mm 217.00 W/m2
11:54 57.6 °F /  14.2 °C 53.1 °F /  11.7 °C 30.1in /  1019.1hPa NNE 9.2mph /  14.8km/h 17.4mph /  28.0km/h 85% 0in /  0.0mm 259.00 W/m2
11:59 57.7 °F /  14.3 °C 52.5 °F /  11.4 °C 30.1in /  1018.8hPa NE 9.8mph /  15.8km/h 15.9mph /  25.6km/h 83% 0in /  0.0mm 275.00 W/m2
12:04 58.3 °F /  14.6 °C 52.9 °F /  11.6 °C 30.1in /  1019.0hPa NNW 8.3mph /  13.4km/h 15.9mph /  25.6km/h 82% 0in /  0.0mm 189.00 W/m2
12:09 58.3 °F /  14.6 °C 52.2 °F /  11.2 °C 30.1in /  1019.0hPa North 9.2mph /  14.8km/h 13mph /  20.9km/h 80% 0in /  0.0mm 198.00 W/m2
12:13 58.1 °F /  14.5 °C 52.3 °F /  11.3 °C 30.1in /  1019.1hPa North 6.9mph /  11.1km/h 15.9mph /  25.6km/h 81% 0in /  0.0mm 246.00 W/m2
12:19 58.3 °F /  14.6 °C 53.2 °F /  11.8 °C 30.1in /  1019.2hPa NNE 8.3mph /  13.4km/h 15.9mph /  25.6km/h 83% 0in /  0.0mm 238.00 W/m2
12:24 57.7 °F /  14.3 °C 52.9 °F /  11.6 °C 30.1in /  1019.2hPa NNE 11.4mph /  18.3km/h 16.8mph /  27.0km/h 84% 0in /  0.0mm 215.00 W/m2
12:29 57 °F /  13.9 °C 52.2 °F /  11.2 °C 30.1in /  1019.3hPa NNE 9.8mph /  15.8km/h 16.8mph /  27.0km/h 84% 0in /  0.0mm 201.00 W/m2
12:34 57 °F /  13.9 °C 51.6 °F /  10.9 °C 30.1in /  1019.3hPa North 7.6mph /  12.2km/h 15.9mph /  25.6km/h 82% 0in /  0.0mm 210.00 W/m2
12:38 57.2 °F /  14.0 °C 51.4 °F /  10.8 °C 30.1in /  1019.3hPa NNE 3.1mph /  5.0km/h 13.6mph /  21.9km/h 81% 0in /  0.0mm 247.00 W/m2
12:42 58.1 °F /  14.5 °C 52 °F /  11.1 °C 30.1in /  1019.3hPa ENE 3.8mph /  6.1km/h 12.1mph /  19.5km/h 80% 0in /  0.0mm 262.00 W/m2
12:49 58.3 °F /  14.6 °C 51.1 °F /  10.6 °C 30.1in /  1019.3hPa ENE 6mph /  9.7km/h 12.1mph /  19.5km/h 77% 0in /  0.0mm 234.00 W/m2
13:14 57 °F /  13.9 °C 53.8 °F /  12.1 °C 30.1in /  1019.3hPa East 4.5mph /  7.2km/h 10.7mph /  17.2km/h 89% 0in /  0.0mm 232.00 W/m2
13:19 56.7 °F /  13.7 °C 53.2 °F /  11.8 °C 30.1in /  1019.4hPa ESE 6mph /  9.7km/h 8.3mph /  13.4km/h 88% 0in /  0.0mm 268.00 W/m2
13:24 56.8 °F /  13.8 °C 53.1 °F /  11.7 °C 30.1in /  1019.5hPa ESE 3.8mph /  6.1km/h 8.3mph /  13.4km/h 87% 0in /  0.0mm 295.00 W/m2
13:28 57.7 °F /  14.3 °C 53.2 °F /  11.8 °C 30.1in /  1019.4hPa SE 4.5mph /  7.2km/h 8.3mph /  13.4km/h 85% 0in /  0.0mm 281.00 W/m2
13:31 58.3 °F /  14.6 °C 52.9 °F /  11.6 °C 30.1in /  1019.6hPa SE 8.3mph /  13.4km/h 13.6mph /  21.9km/h 82% 0in /  0.0mm 283.00 W/m2
13:39 59 °F /  15.0 °C 52.2 °F /  11.2 °C 30.1in /  1019.5hPa ENE 6mph /  9.7km/h 13.6mph /  21.9km/h 78% 0in /  0.0mm 374.00 W/m2
13:44 59.7 °F /  15.4 °C 52.9 °F /  11.6 °C 30.1in /  1019.5hPa ENE 4.5mph /  7.2km/h 12.1mph /  19.5km/h 78% 0in /  0.0mm 374.00 W/m2
13:47 60.4 °F /  15.8 °C 53.6 °F /  12.0 °C 30.1in /  1019.3hPa ENE 6mph /  9.7km/h 9.2mph /  14.8km/h 78% 0in /  0.0mm 329.00 W/m2
13:54 59.7 °F /  15.4 °C 52.2 °F /  11.2 °C 30.1in /  1019.7hPa ENE 8.3mph /  13.4km/h 15.9mph /  25.6km/h 76% 0in /  0.0mm 157.00 W/m2
13:58 58.3 °F /  14.6 °C 51.1 °F /  10.6 °C 30.1in /  1019.6hPa ESE 6mph /  9.7km/h 15.9mph /  25.6km/h 77% 0in /  0.0mm 142.00 W/m2
14:02 58.1 °F /  14.5 °C 50.2 °F /  10.1 °C 30.1in /  1019.8hPa ESE 6mph /  9.7km/h 15.9mph /  25.6km/h 75% 0in /  0.0mm 143.00 W/m2
14:09 58.3 °F /  14.6 °C 50.7 °F /  10.4 °C 30.1in /  1019.7hPa ENE 3.8mph /  6.1km/h 9.8mph /  15.8km/h 76% 0in /  0.0mm 174.00 W/m2
14:14 58.3 °F /  14.6 °C 51.1 °F /  10.6 °C 30.1in /  1019.6hPa NE 9.2mph /  14.8km/h 11.4mph /  18.3km/h 77% 0in /  0.0mm 182.00 W/m2
14:19 58.3 °F /  14.6 °C 51.8 °F /  11.0 °C 30.1in /  1019.7hPa NE 7.6mph /  12.2km/h 11.4mph /  18.3km/h 79% 0in /  0.0mm 219.00 W/m2
14:24 58.3 °F /  14.6 °C 51.1 °F /  10.6 °C 30.1in /  1019.7hPa ENE 8.3mph /  13.4km/h 11.4mph /  18.3km/h 77% 0.01in /  0.3mm 183.00 W/m2
14:27 58.3 °F /  14.6 °C 50.7 °F /  10.4 °C 30.1in /  1019.7hPa NNE 6mph /  9.7km/h 11.4mph /  18.3km/h 76% 0.01in /  0.3mm 180.00 W/m2
14:31 58.8 °F /  14.9 °C 51.6 °F /  10.9 °C 30.1in /  1019.6hPa NNE 5.4mph /  8.7km/h 11.4mph /  18.3km/h 77% 0.01in /  0.3mm 185.00 W/m2
14:39 58.8 °F /  14.9 °C 51.3 °F /  10.7 °C 30.1in /  1019.6hPa ENE 6mph /  9.7km/h 9.8mph /  15.8km/h 76% 0.01in /  0.3mm 131.00 W/m2
14:43 58.3 °F /  14.6 °C 51.1 °F /  10.6 °C 30.1in /  1019.7hPa NE 9.2mph /  14.8km/h 15.9mph /  25.6km/h 77% 0.01in /  0.3mm 143.00 W/m2
14:48 57.9 °F /  14.4 °C 51.1 °F /  10.6 °C 30.1in /  1019.8hPa NNE 6mph /  9.7km/h 15.9mph /  25.6km/h 78% 0.01in /  0.3mm 141.00 W/m2
14:54 57.6 °F /  14.2 °C 50.4 °F /  10.2 °C 30.1in /  1019.9hPa West 6.9mph /  11.1km/h 13.6mph /  21.9km/h 77% 0.01in /  0.3mm 151.00 W/m2
14:59 57.7 °F /  14.3 °C 50.9 °F /  10.5 °C 30.1in /  1019.8hPa SW 6.9mph /  11.1km/h 12.1mph /  19.5km/h 78% 0.01in /  0.3mm 157.00 W/m2
15:04 57.6 °F /  14.2 °C 50.2 °F /  10.1 °C 30.1in /  1019.9hPa ENE 4.5mph /  7.2km/h 12.1mph /  19.5km/h 76% 0.01in /  0.3mm 164.00 W/m2
15:09 57.9 °F /  14.4 °C 50.4 °F /  10.2 °C 30.1in /  1019.8hPa North 3.1mph /  5.0km/h 11.4mph /  18.3km/h 76% 0.01in /  0.3mm 212.00 W/m2
15:14 58.8 °F /  14.9 °C 51.3 °F /  10.7 °C 30.1in /  1019.8hPa WNW 5.4mph /  8.7km/h 7.6mph /  12.2km/h 76% 0.01in /  0.3mm 224.00 W/m2
15:18 59 °F /  15.0 °C 50.4 °F /  10.2 °C 30.1in /  1019.8hPa NNW 5.4mph /  8.7km/h 7.6mph /  12.2km/h 73% 0.01in /  0.3mm 222.00 W/m2
15:24 59.2 °F /  15.1 °C 50.5 °F /  10.3 °C 30.1in /  1019.8hPa North 4.5mph /  7.2km/h 7.6mph /  12.2km/h 73% 0in /  0.0mm 184.00 W/m2
15:29 59.4 °F /  15.2 °C 51.1 °F /  10.6 °C 30.1in /  1019.9hPa NW 3.8mph /  6.1km/h 7.6mph /  12.2km/h 74% 0in /  0.0mm 122.00 W/m2
15:34 58.8 °F /  14.9 °C 51.6 °F /  10.9 °C 30.1in /  1020.1hPa West 6.9mph /  11.1km/h 9.8mph /  15.8km/h 77% 0in /  0.0mm 129.00 W/m2
15:39 58.1 °F /  14.5 °C 51.3 °F /  10.7 °C 30.1in /  1020.0hPa SW 3.8mph /  6.1km/h 9.8mph /  15.8km/h 78% 0in /  0.0mm 124.00 W/m2
15:44 57.9 °F /  14.4 °C 51.1 °F /  10.6 °C 30.1in /  1019.9hPa SW 3.1mph /  5.0km/h 9.8mph /  15.8km/h 78% 0in /  0.0mm 133.00 W/m2
15:48 58.1 °F /  14.5 °C 52.3 °F /  11.3 °C 30.1in /  1020.0hPa Calm   6.9mph /  11.1km/h 81% 0in /  0.0mm 152.00 W/m2
15:54 58.3 °F /  14.6 °C 52.5 °F /  11.4 °C 30.1in /  1020.0hPa SSW 7.6mph /  12.2km/h 10.7mph /  17.2km/h 81% 0in /  0.0mm 193.00 W/m2
15:59 58.3 °F /  14.6 °C 51.4 °F /  10.8 °C 30.1in /  1019.9hPa South 9.2mph /  14.8km/h 13.6mph /  21.9km/h 78% 0in /  0.0mm 186.00 W/m2
16:04 58.8 °F /  14.9 °C 52.3 °F /  11.3 °C 30.1in /  1020.1hPa East 6mph /  9.7km/h 13.6mph /  21.9km/h 79% 0in /  0.0mm 160.00 W/m2
16:09 58.3 °F /  14.6 °C 51.4 °F /  10.8 °C 30.1in /  1020.2hPa ENE 6mph /  9.7km/h 11.4mph /  18.3km/h 78% 0in /  0.0mm 161.00 W/m2
16:14 58.8 °F /  14.9 °C 52 °F /  11.1 °C 30.1in /  1020.0hPa East 3.8mph /  6.1km/h 11.4mph /  18.3km/h 78% 0in /  0.0mm 196.00 W/m2
16:19 59 °F /  15.0 °C 51.8 °F /  11.0 °C 30.1in /  1020.2hPa East 7.6mph /  12.2km/h 11.4mph /  18.3km/h 77% 0in /  0.0mm 182.00 W/m2
16:24 59.2 °F /  15.1 °C 52.3 °F /  11.3 °C 30.1in /  1020.2hPa NE 6.9mph /  11.1km/h 12.1mph /  19.5km/h 78% 0in /  0.0mm 201.00 W/m2
16:29 59.4 °F /  15.2 °C 52.2 °F /  11.2 °C 30.1in /  1020.0hPa ENE 6mph /  9.7km/h 12.1mph /  19.5km/h 77% 0in /  0.0mm 231.00 W/m2
16:34 59.5 °F /  15.3 °C 52.3 °F /  11.3 °C 30.1in /  1020.2hPa ENE 9.8mph /  15.8km/h 13mph /  20.9km/h 77% 0in /  0.0mm 222.00 W/m2
16:38 59.5 °F /  15.3 °C 52 °F /  11.1 °C 30.1in /  1020.2hPa ENE 9.2mph /  14.8km/h 13mph /  20.9km/h 76% 0in /  0.0mm 365.00 W/m2
16:44 60.4 °F /  15.8 °C 52.5 °F /  11.4 °C 30.1in /  1020.1hPa East 6mph /  9.7km/h 12.1mph /  19.5km/h 75% 0in /  0.0mm 466.00 W/m2
16:48 61.7 °F /  16.5 °C 53.1 °F /  11.7 °C 30.1in /  1020.2hPa SE 6.9mph /  11.1km/h 13mph /  20.9km/h 73% 0in /  0.0mm 361.00 W/m2
16:54 61.3 °F /  16.3 °C 51.1 °F /  10.6 °C 30.1in /  1020.4hPa ESE 7.6mph /  12.2km/h 13mph /  20.9km/h 69% 0in /  0.0mm 223.00 W/m2
16:59 60.3 °F /  15.7 °C 51.6 °F /  10.9 °C 30.1in /  1020.4hPa NE 6.9mph /  11.1km/h 13mph /  20.9km/h 73% 0in /  0.0mm 202.00 W/m2
17:04 59.9 °F /  15.5 °C 51.3 °F /  10.7 °C 30.1in /  1020.3hPa NE 7.6mph /  12.2km/h 12.1mph /  19.5km/h 73% 0in /  0.0mm 193.00 W/m2
17:07 59.5 °F /  15.3 °C 50.9 °F /  10.5 °C 30.1in /  1020.4hPa NE 4.5mph /  7.2km/h 12.1mph /  19.5km/h 73% 0in /  0.0mm 165.00 W/m2
17:14 59.4 °F /  15.2 °C 51.1 °F /  10.6 °C 30.1in /  1020.4hPa NNE 3.8mph /  6.1km/h 10.7mph /  17.2km/h 74% 0in /  0.0mm 153.00 W/m2
17:16 59.4 °F /  15.2 °C 51.1 °F /  10.6 °C 30.1in /  1020.4hPa NNE 8.3mph /  13.4km/h 10.7mph /  17.2km/h 74% 0in /  0.0mm 147.00 W/m2
17:24 59.4 °F /  15.2 °C 51.4 °F /  10.8 °C 30.1in /  1020.4hPa East 6mph /  9.7km/h 10.7mph /  17.2km/h 75% 0in /  0.0mm 167.00 W/m2
17:28 59.5 °F /  15.3 °C 51.6 °F /  10.9 °C 30.1in /  1020.5hPa East 2.2mph /  3.5km/h 9.8mph /  15.8km/h 75% 0in /  0.0mm 196.00 W/m2
17:34 59.7 °F /  15.4 °C 51.1 °F /  10.6 °C 30.1in /  1020.6hPa NE 3.8mph /  6.1km/h 10.7mph /  17.2km/h 73% 0in /  0.0mm 167.00 W/m2
17:38 59.7 °F /  15.4 °C 51.1 °F /  10.6 °C 30.1in /  1020.6hPa WNW 6.9mph /  11.1km/h 10.7mph /  17.2km/h 73% 0in /  0.0mm 122.00 W/m2
17:44 59.4 °F /  15.2 °C 51.1 °F /  10.6 °C 30.1in /  1020.6hPa SSW 6mph /  9.7km/h 12.1mph /  19.5km/h 74% 0in /  0.0mm 87.00 W/m2
17:49 58.8 °F /  14.9 °C 50.9 °F /  10.5 °C 30.1in /  1020.8hPa NE 6mph /  9.7km/h 12.1mph /  19.5km/h 75% 0in /  0.0mm 79.00 W/m2
17:52 58.5 °F /  14.7 °C 50.2 °F /  10.1 °C 30.1in /  1020.7hPa NNE 3.8mph /  6.1km/h 10.7mph /  17.2km/h 74% 0in /  0.0mm 85.00 W/m2
17:58 58.8 °F /  14.9 °C 50.9 °F /  10.5 °C 30.1in /  1020.8hPa ENE 3.8mph /  6.1km/h 9.2mph /  14.8km/h 75% 0in /  0.0mm 104.00 W/m2
18:04 58.5 °F /  14.7 °C 50.2 °F /  10.1 °C 30.1in /  1020.8hPa ESE 2.2mph /  3.5km/h 9.8mph /  15.8km/h 74% 0in /  0.0mm 105.00 W/m2
18:09 58.8 °F /  14.9 °C 50.2 °F /  10.1 °C 30.1in /  1020.8hPa ESE 3.1mph /  5.0km/h 10.7mph /  17.2km/h 73% 0in /  0.0mm 94.00 W/m2
18:14 58.8 °F /  14.9 °C 50.2 °F /  10.1 °C 30.1in /  1020.8hPa East 5.4mph /  8.7km/h 10.7mph /  17.2km/h 73% 0in /  0.0mm 89.00 W/m2
18:34 58.3 °F /  14.6 °C 50 °F /  10.0 °C 30.2in /  1021.1hPa ENE 6mph /  9.7km/h 9.8mph /  15.8km/h 74% 0in /  0.0mm 55.00 W/m2
18:39 58.3 °F /  14.6 °C 50 °F /  10.0 °C 30.2in /  1021.1hPa ENE 3.8mph /  6.1km/h 9.2mph /  14.8km/h 74% 0in /  0.0mm 55.00 W/m2
18:44 58.3 °F /  14.6 °C 50 °F /  10.0 °C 30.2in /  1021.1hPa ENE 2.2mph /  3.5km/h 9.2mph /  14.8km/h 74% 0in /  0.0mm 54.00 W/m2
18:48 58.1 °F /  14.5 °C 49.8 °F /  9.9 °C 30.2in /  1021.1hPa ENE 6.9mph /  11.1km/h 9.2mph /  14.8km/h 74% 0in /  0.0mm 48.00 W/m2
18:54 57.9 °F /  14.4 °C 49.6 °F /  9.8 °C 30.2in /  1021.2hPa NE 6mph /  9.7km/h 10.7mph /  17.2km/h 74% 0in /  0.0mm 40.00 W/m2
18:59 57.9 °F /  14.4 °C 50.2 °F /  10.1 °C 30.2in /  1021.3hPa NE 5.4mph /  8.7km/h 10.7mph /  17.2km/h 75% 0in /  0.0mm 32.00 W/m2
19:04 57.7 °F /  14.3 °C 49.8 °F /  9.9 °C 30.2in /  1021.2hPa ENE 2.2mph /  3.5km/h 8.3mph /  13.4km/h 75% 0in /  0.0mm 25.00 W/m2
19:09 57.7 °F /  14.3 °C 49.8 °F /  9.9 °C 30.2in /  1021.3hPa ESE 1.6mph /  2.6km/h 8.3mph /  13.4km/h 75% 0in /  0.0mm 18.00 W/m2
19:14 57.7 °F /  14.3 °C 50.2 °F /  10.1 °C 30.2in /  1021.4hPa East 3.8mph /  6.1km/h 7.6mph /  12.2km/h 76% 0in /  0.0mm 21.00 W/m2
19:17 57.6 °F /  14.2 °C 50.2 °F /  10.1 °C 30.2in /  1021.3hPa ENE 3.8mph /  6.1km/h 7.6mph /  12.2km/h 76% 0in /  0.0mm 22.00 W/m2
19:24 57.6 °F /  14.2 °C 49.6 °F /  9.8 °C 30.2in /  1021.6hPa East 3.1mph /  5.0km/h 7.6mph /  12.2km/h 75% 0in /  0.0mm 17.00 W/m2
19:29 57.6 °F /  14.2 °C 50.2 °F /  10.1 °C 30.2in /  1021.5hPa East 3.8mph /  6.1km/h 6mph /  9.7km/h 76% 0in /  0.0mm 11.00 W/m2
19:34 57.4 °F /  14.1 °C 49.8 °F /  9.9 °C 30.2in /  1021.5hPa East 3.1mph /  5.0km/h 6mph /  9.7km/h 76% 0in /  0.0mm 6.00 W/m2
19:39 57.4 °F /  14.1 °C 50.2 °F /  10.1 °C 30.2in /  1021.7hPa East 4.5mph /  7.2km/h 6mph /  9.7km/h 77% 0in /  0.0mm 4.00 W/m2
19:43 57.2 °F /  14.0 °C 50.2 °F /  10.1 °C 30.2in /  1021.6hPa ENE 3.1mph /  5.0km/h 6.9mph /  11.1km/h 77% 0in /  0.0mm 2.00 W/m2
19:49 57.2 °F /  14.0 °C 49.6 °F /  9.8 °C 30.2in /  1021.6hPa ENE 2.2mph /  3.5km/h 6.9mph /  11.1km/h 76% 0in /  0.0mm 0.00 W/m2
19:54 57 °F /  13.9 °C 50.2 °F /  10.1 °C 30.2in /  1021.6hPa ENE 2.2mph /  3.5km/h 6mph /  9.7km/h 78% 0in /  0.0mm 0.00 W/m2
19:59 57 °F /  13.9 °C 50.2 °F /  10.1 °C 30.2in /  1021.7hPa NNE 3.1mph /  5.0km/h 6mph /  9.7km/h 78% 0in /  0.0mm 0.00 W/m2
20:04 57 °F /  13.9 °C 50.2 °F /  10.1 °C 30.2in /  1021.8hPa East 1.6mph /  2.6km/h 8.3mph /  13.4km/h 78% 0in /  0.0mm 0.00 W/m2
20:09 57 °F /  13.9 °C 50.2 °F /  10.1 °C 30.2in /  1021.7hPa Calm   8.3mph /  13.4km/h 78% 0in /  0.0mm 0.00 W/m2
20:13 57 °F /  13.9 °C 50.5 °F /  10.3 °C 30.2in /  1021.9hPa ESE 3.8mph /  6.1km/h 6mph /  9.7km/h 79% 0in /  0.0mm 0.00 W/m2
20:19 57 °F /  13.9 °C 50.9 °F /  10.5 °C 30.2in /  1022.0hPa ESE 1.6mph /  2.6km/h 6mph /  9.7km/h 80% 0in /  0.0mm 0.00 W/m2
20:24 56.8 °F /  13.8 °C 50.4 °F /  10.2 °C 30.2in /  1021.8hPa East 3.1mph /  5.0km/h 5.4mph /  8.7km/h 79% 0in /  0.0mm 0.00 W/m2
20:28 56.8 °F /  13.8 °C 50.2 °F /  10.1 °C 30.2in /  1021.8hPa East 1.6mph /  2.6km/h 5.4mph /  8.7km/h 78% 0in /  0.0mm 0.00 W/m2
20:33 56.8 °F /  13.8 °C 50.2 °F /  10.1 °C 30.2in /  1021.9hPa ESE 1.6mph /  2.6km/h 5.4mph /  8.7km/h 78% 0in /  0.0mm 0.00 W/m2
20:39 56.8 °F /  13.8 °C 50.2 °F /  10.1 °C 30.2in /  1022.0hPa ESE 3.1mph /  5.0km/h 4.5mph /  7.2km/h 78% 0in /  0.0mm 0.00 W/m2
20:44 56.8 °F /  13.8 °C 50.2 °F /  10.1 °C 30.2in /  1022.0hPa ESE 3.1mph /  5.0km/h 5.4mph /  8.7km/h 78% 0in /  0.0mm 0.00 W/m2
20:47 56.8 °F /  13.8 °C 50.2 °F /  10.1 °C 30.2in /  1022.2hPa East 3.8mph /  6.1km/h 5.4mph /  8.7km/h 78% 0in /  0.0mm 0.00 W/m2
20:54 56.8 °F /  13.8 °C 50.4 °F /  10.2 °C 30.2in /  1022.3hPa ENE 1.6mph /  2.6km/h 6mph /  9.7km/h 79% 0in /  0.0mm 0.00 W/m2
20:59 57 °F /  13.9 °C 50.9 °F /  10.5 °C 30.2in /  1022.4hPa Calm   4.5mph /  7.2km/h 80% 0in /  0.0mm 0.00 W/m2
21:04 56.8 °F /  13.8 °C 50.7 °F /  10.4 °C 30.2in /  1022.4hPa East 3.1mph /  5.0km/h 4.5mph /  7.2km/h 80% 0in /  0.0mm 0.00 W/m2
21:09 56.8 °F /  13.8 °C 50.4 °F /  10.2 °C 30.2in /  1022.5hPa ESE 0.7mph /  1.1km/h 5.4mph /  8.7km/h 79% 0in /  0.0mm 0.00 W/m2
21:14 56.8 °F /  13.8 °C 50.4 °F /  10.2 °C 30.2in /  1022.5hPa East 1.6mph /  2.6km/h 5.4mph /  8.7km/h 79% 0in /  0.0mm 0.00 W/m2
21:19 56.8 °F /  13.8 °C 50.4 °F /  10.2 °C 30.2in /  1022.7hPa ENE 2.2mph /  3.5km/h 5.4mph /  8.7km/h 79% 0in /  0.0mm 0.00 W/m2
21:29 56.8 °F /  13.8 °C 50.7 °F /  10.4 °C 30.2in /  1022.6hPa ESE 2.2mph /  3.5km/h 3.8mph /  6.1km/h 80% 0in /  0.0mm 0.00 W/m2
21:34 56.8 °F /  13.8 °C 50.7 °F /  10.4 °C 30.2in /  1022.7hPa East 1.6mph /  2.6km/h 5.4mph /  8.7km/h 80% 0in /  0.0mm 0.00 W/m2
21:39 57 °F /  13.9 °C 50.9 °F /  10.5 °C 30.2in /  1022.7hPa East 3.1mph /  5.0km/h 5.4mph /  8.7km/h 80% 0in /  0.0mm 0.00 W/m2
21:43 56.8 °F /  13.8 °C 50.7 °F /  10.4 °C 30.2in /  1022.8hPa ENE 1.6mph /  2.6km/h 4.5mph /  7.2km/h 80% 0in /  0.0mm 0.00 W/m2
21:49 56.8 °F /  13.8 °C 50.7 °F /  10.4 °C 30.2in /  1022.8hPa ESE 2.2mph /  3.5km/h 4.5mph /  7.2km/h 80% 0in /  0.0mm 0.00 W/m2
21:54 56.8 °F /  13.8 °C 50.7 °F /  10.4 °C 30.2in /  1022.9hPa ESE 2.2mph /  3.5km/h 5.4mph /  8.7km/h 80% 0in /  0.0mm 0.00 W/m2
21:59 56.8 °F /  13.8 °C 50.4 °F /  10.2 °C 30.2in /  1022.8hPa ESE 2.2mph /  3.5km/h 5.4mph /  8.7km/h 79% 0in /  0.0mm 0.00 W/m2
22:04 56.8 °F /  13.8 °C 50.4 °F /  10.2 °C 30.2in /  1022.9hPa ESE 0.7mph /  1.1km/h 4.5mph /  7.2km/h 79% 0in /  0.0mm 0.00 W/m2
22:09 57 °F /  13.9 °C 50.5 °F /  10.3 °C 30.2in /  1023.0hPa ESE 2.2mph /  3.5km/h 4.5mph /  7.2km/h 79% 0in /  0.0mm 0.00 W/m2
22:14 57 °F /  13.9 °C 50.9 °F /  10.5 °C 30.2in /  1022.8hPa ESE 3.1mph /  5.0km/h 5.4mph /  8.7km/h 80% 0in /  0.0mm 0.00 W/m2
22:16 57 °F /  13.9 °C 51.3 °F /  10.7 °C 30.2in /  1023.0hPa ESE 3.1mph /  5.0km/h 6.9mph /  11.1km/h 81% 0in /  0.0mm 0.00 W/m2
22:24 56.8 °F /  13.8 °C 51.4 °F /  10.8 °C 30.2in /  1023.0hPa ESE 3.1mph /  5.0km/h 6.9mph /  11.1km/h 82% 0in /  0.0mm 0.00 W/m2
22:27 56.8 °F /  13.8 °C 51.6 °F /  10.9 °C 30.2in /  1023.0hPa ESE 3.1mph /  5.0km/h 6mph /  9.7km/h 83% 0in /  0.0mm 0.00 W/m2
22:34 56.5 °F /  13.6 °C 51.4 °F /  10.8 °C 30.2in /  1023.1hPa East 3.1mph /  5.0km/h 7.6mph /  12.2km/h 83% 0in /  0.0mm 0.00 W/m2
22:37 56.5 °F /  13.6 °C 51.4 °F /  10.8 °C 30.2in /  1023.2hPa ENE 3.1mph /  5.0km/h 7.6mph /  12.2km/h 83% 0in /  0.0mm 0.00 W/m2
22:41 56.3 °F /  13.5 °C 51.3 °F /  10.7 °C 30.2in /  1023.1hPa ENE 1.6mph /  2.6km/h 6mph /  9.7km/h 83% 0in /  0.0mm 0.00 W/m2
22:48 56.3 °F /  13.5 °C 51.3 °F /  10.7 °C 30.2in /  1023.2hPa ESE 2.2mph /  3.5km/h 6mph /  9.7km/h 83% 0in /  0.0mm 0.00 W/m2
22:54 56.3 °F /  13.5 °C 51.4 °F /  10.8 °C 30.2in /  1023.3hPa ESE 3.1mph /  5.0km/h 6mph /  9.7km/h 84% 0in /  0.0mm 0.00 W/m2
22:59 56.3 °F /  13.5 °C 51.4 °F /  10.8 °C 30.2in /  1023.3hPa ESE 0.7mph /  1.1km/h 6mph /  9.7km/h 84% 0in /  0.0mm 0.00 W/m2
23:04 56.3 °F /  13.5 °C 51.4 °F /  10.8 °C 30.2in /  1023.2hPa ESE 1.6mph /  2.6km/h 4.5mph /  7.2km/h 84% 0in /  0.0mm 0.00 W/m2
23:07 56.3 °F /  13.5 °C 51.4 °F /  10.8 °C 30.2in /  1023.2hPa ESE 1.6mph /  2.6km/h 4.5mph /  7.2km/h 84% 0in /  0.0mm 0.00 W/m2
23:13 56.3 °F /  13.5 °C 51.4 °F /  10.8 °C 30.2in /  1023.2hPa Calm   4.5mph /  7.2km/h 84% 0in /  0.0mm 0.00 W/m2
23:19 56.1 °F /  13.4 °C 51.6 °F /  10.9 °C 30.2in /  1023.3hPa East 4.5mph /  7.2km/h 6mph /  9.7km/h 85% 0in /  0.0mm 0.00 W/m2
23:24 55.9 °F /  13.3 °C 51.4 °F /  10.8 °C 30.2in /  1023.3hPa East 2.2mph /  3.5km/h 8.3mph /  13.4km/h 85% 0in /  0.0mm 0.00 W/m2
23:28 55.8 °F /  13.2 °C 51.6 °F /  10.9 °C 30.2in /  1023.3hPa East 2.2mph /  3.5km/h 8.3mph /  13.4km/h 86% 0in /  0.0mm 0.00 W/m2
23:31 55.6 °F /  13.1 °C 51.4 °F /  10.8 °C 30.2in /  1023.2hPa ENE 1.6mph /  2.6km/h 6.9mph /  11.1km/h 86% 0in /  0.0mm 0.00 W/m2
23:39 55.2 °F /  12.9 °C 51.4 °F /  10.8 °C 30.2in /  1023.2hPa NE 3.8mph /  6.1km/h 6.9mph /  11.1km/h 87% 0in /  0.0mm 0.00 W/m2
23:43 55 °F /  12.8 °C 51.6 °F /  10.9 °C 30.2in /  1023.1hPa NE 2.2mph /  3.5km/h 6mph /  9.7km/h 88% 0in /  0.0mm 0.00 W/m2
23:48 55 °F /  12.8 °C 52 °F /  11.1 °C 30.2in /  1023.3hPa NE 3.1mph /  5.0km/h 6mph /  9.7km/h 89% 0in /  0.0mm 0.00 W/m2
23:54 54.9 °F /  12.7 °C 51.6 °F /  10.9 °C 30.2in /  1023.4hPa NE 2.2mph /  3.5km/h 4.5mph /  7.2km/h 89% 0in /  0.0mm 0.00 W/m2
23:58 54.9 °F /  12.7 °C 51.6 °F /  10.9 °C 30.2in /  1023.4hPa NE 2.2mph /  3.5km/h 4.5mph /  7.2km/h 89% 0in /  0.0mm 0.00 W/m2
Northern Hawkes Bay. New Zealand Historic Data
Compliments of Weather Underground - 2 mb